Time;durP1;ratioP1;P1;durP2;ratioP2;P2;SDS_P1;SDS_P2;PMS_P1;PMS_P2;Temp;Humidity;BMP_temperature;BMP_pressure;BME280_temperature;BME280_humidity;BME280_pressure;Samples;Min_cycle;Max_cycle;Signal;HPM_P1;HPM_P2
2022/07/02 00:02:05;;;;;;;;;;;8.70;99.90;;;;;;5084029;28;19920;-55
2022/07/02 00:04:47;;;;;;;;;;;8.70;99.90;;;;;;5126782;27;19917;-55
2022/07/02 00:07:28;;;;;;;;;;;8.70;99.90;;;;;;5087439;27;19920;-55
2022/07/02 00:10:09;;;;;;;;;;;8.70;99.90;;;;;;5093270;27;19934;-55
2022/07/02 00:12:50;;;;;;;;;;;8.70;99.90;;;;;;5116124;27;19911;-54
2022/07/02 00:15:30;;;;;;;;;;;8.70;99.90;;;;;;5113847;27;19912;-55
2022/07/02 00:18:10;;;;;;;;;;;8.60;99.90;;;;;;5111721;27;20325;-55
2022/07/02 00:20:50;;;;;;;;;;;8.60;99.90;;;;;;5117076;27;19912;-55
2022/07/02 00:23:30;;;;;;;;;;;8.60;99.90;;;;;;5122984;27;19911;-55
2022/07/02 00:26:13;;;;;;;;;;;8.50;99.90;;;;;;5155878;27;20028;-55
2022/07/02 00:28:55;;;;;;;;;;;8.50;99.90;;;;;;5123572;27;19912;-55
2022/07/02 00:31:38;;;;;;;;;;;8.50;99.90;;;;;;5096198;27;19912;-55
2022/07/02 00:34:19;;;;;;;;;;;8.40;99.90;;;;;;5126460;27;20368;-56
2022/07/02 00:36:58;;;;;;;;;;;8.50;99.90;;;;;;5102001;27;19916;-55
2022/07/02 00:39:38;;;;;;;;;;;8.40;99.90;;;;;;5119254;27;20187;-55
2022/07/02 00:42:19;;;;;;;;;;;8.40;99.90;;;;;;5122749;27;19912;-55
2022/07/02 00:45:00;;;;;;;;;;;8.40;99.90;;;;;;5123090;27;19920;-55
2022/07/02 00:47:42;;;;;;;;;;;8.50;99.90;;;;;;5109641;27;20277;-55
2022/07/02 00:50:22;;;;;;;;;;;8.50;99.90;;;;;;5111754;27;19912;-55
2022/07/02 00:53:02;;;;;;;;;;;8.60;99.90;;;;;;5113686;27;19939;-55
2022/07/02 00:55:42;;;;;;;;;;;8.60;99.90;;;;;;5102493;27;19957;-55
2022/07/02 00:58:22;;;;;;;;;;;8.60;99.90;;;;;;5152762;27;19911;-55
2022/07/02 01:01:02;;;;;;;;;;;8.50;99.90;;;;;;5107209;27;19912;-55
2022/07/02 01:03:43;;;;;;;;;;;8.50;99.90;;;;;;5114196;27;19915;-55
2022/07/02 01:06:24;;;;;;;;;;;8.50;99.90;;;;;;5102389;27;20321;-55
2022/07/02 01:12:03;;;;;;;;;;;8.50;99.90;;;;;;5124549;27;19919;-55
2022/07/02 01:14:44;;;;;;;;;;;8.30;99.90;;;;;;5102194;27;19926;-55
2022/07/02 01:17:25;;;;;;;;;;;8.20;99.90;;;;;;5119615;27;19912;-55
2022/07/02 01:20:05;;;;;;;;;;;8.10;99.90;;;;;;5073719;28;19916;-55
2022/07/02 01:22:46;;;;;;;;;;;8.10;99.90;;;;;;5123530;27;19911;-55
2022/07/02 01:25:26;;;;;;;;;;;8.20;99.90;;;;;;5103384;27;20528;-55
2022/07/02 01:28:06;;;;;;;;;;;8.30;99.90;;;;;;5102836;27;20397;-55
2022/07/02 01:30:45;;;;;;;;;;;8.20;99.90;;;;;;5118592;27;19911;-55
2022/07/02 01:33:25;;;;;;;;;;;8.10;99.90;;;;;;5110733;27;19912;-55
2022/07/02 01:36:05;;;;;;;;;;;8.10;99.90;;;;;;5094465;27;19958;-55
2022/07/02 01:38:45;;;;;;;;;;;8.10;99.90;;;;;;5120070;27;19911;-55
2022/07/02 01:41:42;;;;;;;;;;;8.10;99.90;;;;;;5115473;27;20315;-55
2022/07/02 01:44:22;;;;;;;;;;;8.10;99.90;;;;;;5102710;27;19926;-55
2022/07/02 01:47:02;;;;;;;;;;;8.10;99.90;;;;;;5103447;27;19953;-55
2022/07/02 01:49:43;;;;;;;;;;;8.10;99.90;;;;;;5153434;27;20313;-55
2022/07/02 01:52:24;;;;;;;;;;;8.20;99.90;;;;;;5095264;27;19912;-55
2022/07/02 01:55:05;;;;;;;;;;;8.20;99.90;;;;;;5122303;27;19915;-55
2022/07/02 01:57:46;;;;;;;;;;;8.30;99.90;;;;;;5102301;27;19926;-55
2022/07/02 02:00:26;;;;;;;;;;;8.30;99.90;;;;;;5127012;22;20338;-55
2022/07/02 02:03:06;;;;;;;;;;;8.30;99.90;;;;;;5122803;27;20262;-55
2022/07/02 02:05:45;;;;;;;;;;;8.10;99.90;;;;;;5120141;27;19915;-55
2022/07/02 02:08:25;;;;;;;;;;;8.00;99.90;;;;;;5117169;27;19929;-55
2022/07/02 02:11:05;;;;;;;;;;;7.80;99.90;;;;;;5122454;27;19925;-54
2022/07/02 02:13:58;;;;;;;;;;;7.70;99.90;;;;;;5123641;27;19912;-56
2022/07/02 02:16:38;;;;;;;;;;;7.70;99.90;;;;;;5098561;27;19912;-55
2022/07/02 02:19:18;;;;;;;;;;;7.60;99.90;;;;;;5122842;27;19911;-56
2022/07/02 02:21:58;;;;;;;;;;;7.50;99.90;;;;;;5122409;27;19912;-55
2022/07/02 02:24:38;;;;;;;;;;;7.50;99.90;;;;;;5124504;27;19911;-55
2022/07/02 02:27:17;;;;;;;;;;;7.50;99.90;;;;;;5123536;27;20331;-55
2022/07/02 02:29:57;;;;;;;;;;;7.40;99.90;;;;;;5122106;27;19912;-55
2022/07/02 02:32:38;;;;;;;;;;;7.30;99.90;;;;;;5124966;27;19912;-55
2022/07/02 02:35:19;;;;;;;;;;;7.40;99.90;;;;;;5124641;27;19915;-56
2022/07/02 02:37:58;;;;;;;;;;;7.40;99.90;;;;;;5083090;27;19912;-55
2022/07/02 02:40:38;;;;;;;;;;;7.40;99.90;;;;;;5115196;27;19919;-55
2022/07/02 02:43:18;;;;;;;;;;;7.40;99.90;;;;;;5103964;27;19941;-55
2022/07/02 02:45:58;;;;;;;;;;;7.30;99.90;;;;;;5102679;27;19916;-55
2022/07/02 02:48:38;;;;;;;;;;;7.30;99.90;;;;;;5124646;27;19915;-55
2022/07/02 02:51:17;;;;;;;;;;;7.20;99.90;;;;;;5092970;27;20320;-55
2022/07/02 02:53:57;;;;;;;;;;;7.30;99.90;;;;;;5122915;27;19919;-55
2022/07/02 02:56:37;;;;;;;;;;;7.30;99.90;;;;;;5163944;27;20339;-55
2022/07/02 02:59:17;;;;;;;;;;;7.30;99.90;;;;;;5124391;27;19912;-55
2022/07/02 03:01:57;;;;;;;;;;;7.30;99.90;;;;;;5103265;27;19912;-55
2022/07/02 03:04:37;;;;;;;;;;;7.30;99.90;;;;;;5124631;27;20320;-55
2022/07/02 03:07:16;;;;;;;;;;;7.40;99.90;;;;;;5123600;27;19912;-55
2022/07/02 03:09:56;;;;;;;;;;;7.50;99.90;;;;;;5084099;28;19920;-55
2022/07/02 03:12:36;;;;;;;;;;;7.50;99.90;;;;;;5104651;27;19912;-55
2022/07/02 03:15:16;;;;;;;;;;;7.60;99.90;;;;;;5104037;27;19969;-55
2022/07/02 03:17:56;;;;;;;;;;;7.70;99.90;;;;;;5123751;27;20348;-55
2022/07/02 03:20:36;;;;;;;;;;;7.70;99.90;;;;;;5124336;27;19911;-54
2022/07/02 03:23:15;;;;;;;;;;;7.80;99.90;;;;;;5089185;27;19912;-56
2022/07/02 03:25:55;;;;;;;;;;;7.80;99.90;;;;;;5101579;27;19912;-55
2022/07/02 03:28:35;;;;;;;;;;;7.90;99.90;;;;;;5123999;27;19916;-55
2022/07/02 03:31:15;;;;;;;;;;;7.90;99.90;;;;;;5083619;28;19912;-55
2022/07/02 03:33:55;;;;;;;;;;;8.00;99.90;;;;;;5124066;27;20372;-55
2022/07/02 03:36:34;;;;;;;;;;;8.10;99.90;;;;;;5118711;27;19915;-55
2022/07/02 03:39:14;;;;;;;;;;;8.20;99.90;;;;;;5119269;27;19918;-55
2022/07/02 03:41:54;;;;;;;;;;;8.20;99.90;;;;;;5103613;27;20140;-55
2022/07/02 03:44:34;;;;;;;;;;;8.30;99.90;;;;;;5123741;27;19920;-55
2022/07/02 03:47:14;;;;;;;;;;;8.40;99.90;;;;;;5102220;27;19946;-55
2022/07/02 03:49:54;;;;;;;;;;;8.30;99.90;;;;;;5122518;27;19912;-55
2022/07/02 03:52:34;;;;;;;;;;;8.30;99.90;;;;;;5108713;27;19912;-55
2022/07/02 03:55:15;;;;;;;;;;;8.30;99.90;;;;;;5103085;27;20311;-54
2022/07/02 03:57:55;;;;;;;;;;;8.40;99.90;;;;;;5121556;27;19911;-55
2022/07/02 04:00:35;;;;;;;;;;;8.70;99.90;;;;;;5115553;27;19912;-55
2022/07/02 04:03:14;;;;;;;;;;;9.10;99.90;;;;;;5122814;27;19919;-55
2022/07/02 04:05:54;;;;;;;;;;;9.60;99.90;;;;;;5093811;27;19962;-57
2022/07/02 04:08:34;;;;;;;;;;;10.10;99.90;;;;;;5084782;27;20328;-55
2022/07/02 04:11:14;;;;;;;;;;;10.50;99.90;;;;;;5110793;27;20315;-54
2022/07/02 04:13:54;;;;;;;;;;;10.80;99.90;;;;;;5103123;27;19912;-55
2022/07/02 04:16:34;;;;;;;;;;;10.80;99.90;;;;;;5123604;27;19926;-55
2022/07/02 04:19:13;;;;;;;;;;;10.80;99.90;;;;;;5124599;27;19961;-55
2022/07/02 04:21:53;;;;;;;;;;;10.90;99.90;;;;;;5106082;27;19916;-55
2022/07/02 04:24:33;;;;;;;;;;;11.00;99.90;;;;;;5122515;27;20380;-55
2022/07/02 04:27:13;;;;;;;;;;;11.10;99.90;;;;;;5102432;27;19957;-55
2022/07/02 04:29:53;;;;;;;;;;;11.30;99.90;;;;;;5117404;27;19921;-55
2022/07/02 04:32:32;;;;;;;;;;;11.70;99.90;;;;;;5103737;27;19951;-55
2022/07/02 04:35:12;;;;;;;;;;;12.10;99.90;;;;;;5124873;27;19961;-55
2022/07/02 04:37:52;;;;;;;;;;;12.30;99.90;;;;;;5114421;27;20320;-55
2022/07/02 04:40:32;;;;;;;;;;;12.30;99.90;;;;;;5116132;27;19924;-55
2022/07/02 04:43:12;;;;;;;;;;;12.20;99.90;;;;;;5103060;27;19916;-54
2022/07/02 04:45:52;;;;;;;;;;;12.20;99.90;;;;;;5122100;27;19920;-54
2022/07/02 04:48:32;;;;;;;;;;;12.30;99.90;;;;;;5121345;27;19923;-54
2022/07/02 04:51:11;;;;;;;;;;;12.50;99.90;;;;;;5110736;27;20324;-55
2022/07/02 04:53:51;;;;;;;;;;;12.70;99.90;;;;;;5118047;27;20451;-55
2022/07/02 04:56:31;;;;;;;;;;;12.90;99.90;;;;;;5122580;27;20280;-55
2022/07/02 04:59:11;;;;;;;;;;;13.20;99.90;;;;;;5120412;27;19926;-55
2022/07/02 05:01:51;;;;;;;;;;;13.50;99.90;;;;;;5104995;27;19912;-55
2022/07/02 05:04:32;;;;;;;;;;;14.20;99.90;;;;;;5083985;28;19912;-54
2022/07/02 05:07:12;;;;;;;;;;;15.20;99.90;;;;;;5124500;27;19923;-55
2022/07/02 05:09:52;;;;;;;;;;;16.00;99.90;;;;;;5102701;27;19966;-55
2022/07/02 05:12:31;;;;;;;;;;;16.70;99.90;;;;;;5125876;27;20140;-56
2022/07/02 05:15:11;;;;;;;;;;;17.10;99.90;;;;;;5124550;27;19934;-55
2022/07/02 05:17:51;;;;;;;;;;;17.30;99.90;;;;;;5103889;27;19926;-55
2022/07/02 05:20:31;;;;;;;;;;;17.50;99.90;;;;;;5125053;27;19961;-55
2022/07/02 05:23:11;;;;;;;;;;;17.80;99.90;;;;;;5130469;27;19916;-55
2022/07/02 05:25:51;;;;;;;;;;;18.80;99.90;;;;;;5105707;27;20279;-55
2022/07/02 05:28:30;;;;;;;;;;;19.30;99.90;;;;;;5126213;27;19918;-54
2022/07/02 05:31:10;;;;;;;;;;;19.50;99.90;;;;;;5132331;27;19911;-55
2022/07/02 05:33:50;;;;;;;;;;;19.40;99.90;;;;;;5125469;27;19918;-56
2022/07/02 05:36:30;;;;;;;;;;;19.40;99.90;;;;;;5104815;27;19957;-55
2022/07/02 05:39:10;;;;;;;;;;;19.30;99.90;;;;;;5125657;27;19916;-55
2022/07/02 05:41:50;;;;;;;;;;;19.00;99.90;;;;;;5096395;27;19913;-55
2022/07/02 05:44:29;;;;;;;;;;;18.80;99.90;;;;;;5125363;27;20547;-55
2022/07/02 05:47:09;;;;;;;;;;;18.70;99.90;;;;;;5124990;27;19915;-54
2022/07/02 05:49:49;;;;;;;;;;;18.70;99.90;;;;;;5104646;27;19926;-55
2022/07/02 05:52:29;;;;;;;;;;;18.70;99.90;;;;;;5125694;27;19912;-55
2022/07/02 05:55:09;;;;;;;;;;;19.00;99.90;;;;;;5125765;27;19916;-55
2022/07/02 05:57:50;;;;;;;;;;;18.80;99.90;;;;;;5124941;27;19912;-55
2022/07/02 06:00:30;;;;;;;;;;;18.80;99.90;;;;;;5098599;27;19946;-55
2022/07/02 06:03:10;;;;;;;;;;;18.50;99.90;;;;;;5125027;27;19916;-55
2022/07/02 06:08:47;;;;;;;;;;;18.50;99.90;;;;;;5125864;27;19912;-55
2022/07/02 06:11:29;;;;;;;;;;;18.50;99.90;;;;;;5120832;27;20413;-55
2022/07/02 06:14:08;;;;;;;;;;;18.70;99.90;;;;;;5108089;27;20320;-55
2022/07/02 06:16:48;;;;;;;;;;;19.20;99.90;;;;;;5125199;27;19912;-55
2022/07/02 06:19:28;;;;;;;;;;;19.40;99.90;;;;;;5125544;27;19912;-55
2022/07/02 06:22:08;;;;;;;;;;;19.00;99.90;;;;;;5059017;27;19943;-55
2022/07/02 06:24:48;;;;;;;;;;;18.60;99.90;;;;;;5123463;27;19911;-55
2022/07/02 06:27:27;;;;;;;;;;;18.60;99.90;;;;;;5123797;27;19916;-55
2022/07/02 06:30:08;;;;;;;;;;;18.90;99.90;;;;;;5109689;27;20385;-55
2022/07/02 06:32:49;;;;;;;;;;;19.10;99.90;;;;;;5102198;27;19916;-55
2022/07/02 06:35:29;;;;;;;;;;;19.20;99.90;;;;;;5104061;27;20330;-54
2022/07/02 06:38:08;;;;;;;;;;;19.00;99.90;;;;;;5129669;27;20318;-55
2022/07/02 06:40:48;;;;;;;;;;;18.70;99.90;;;;;;5116213;27;20407;-54
2022/07/02 06:43:28;;;;;;;;;;;18.20;99.90;;;;;;5124011;27;19923;-55
2022/07/02 06:46:08;;;;;;;;;;;17.90;99.90;;;;;;5108947;27;19912;-54
2022/07/02 06:48:48;;;;;;;;;;;17.50;99.90;;;;;;5102738;27;19961;-55
2022/07/02 06:51:28;;;;;;;;;;;17.40;99.90;;;;;;5109689;27;20312;-55
2022/07/02 06:54:07;;;;;;;;;;;17.40;99.90;;;;;;5124900;27;19912;-55
2022/07/02 06:56:47;;;;;;;;;;;17.20;99.90;;;;;;5124852;27;19911;-55
2022/07/02 06:59:27;;;;;;;;;;;17.20;99.90;;;;;;5125574;27;19920;-55
2022/07/02 07:02:07;;;;;;;;;;;17.30;99.90;;;;;;5105620;27;19916;-55
2022/07/02 07:04:47;;;;;;;;;;;17.30;99.90;;;;;;5125219;27;19915;-55
2022/07/02 07:07:28;;;;;;;;;;;17.40;99.90;;;;;;5125208;27;20373;-55
2022/07/02 07:10:08;;;;;;;;;;;17.50;99.90;;;;;;5125358;27;19915;-55
2022/07/02 07:12:49;;;;;;;;;;;17.50;99.90;;;;;;5100048;27;20487;-54
2022/07/02 07:15:29;;;;;;;;;;;17.50;99.90;;;;;;5115065;27;19926;-55
2022/07/02 07:18:09;;;;;;;;;;;17.60;99.90;;;;;;5124389;27;19929;-55
2022/07/02 07:20:50;;;;;;;;;;;17.80;99.90;;;;;;5124862;27;19912;-55
2022/07/02 07:23:31;;;;;;;;;;;17.80;99.90;;;;;;5104890;27;19928;-55
2022/07/02 07:26:12;;;;;;;;;;;18.00;99.90;;;;;;5122794;27;19912;-55
2022/07/02 07:28:51;;;;;;;;;;;18.10;99.90;;;;;;5125072;27;20269;-55
2022/07/02 07:31:31;;;;;;;;;;;18.30;99.90;;;;;;5123503;27;19911;-55
2022/07/02 07:34:11;;;;;;;;;;;18.30;99.90;;;;;;5104795;27;19926;-55
2022/07/02 07:36:53;;;;;;;;;;;18.20;99.90;;;;;;5100773;27;19954;-55
2022/07/02 07:39:32;;;;;;;;;;;18.30;99.90;;;;;;5065075;28;19928;-55
2022/07/02 07:42:12;;;;;;;;;;;18.40;99.90;;;;;;5104043;27;20106;-55
2022/07/02 07:44:52;;;;;;;;;;;18.50;99.90;;;;;;5105047;27;19957;-55
2022/07/02 07:47:32;;;;;;;;;;;18.80;99.90;;;;;;5125432;27;19912;-55
2022/07/02 07:50:12;;;;;;;;;;;18.90;99.90;;;;;;5088207;27;20614;-55
2022/07/02 07:52:51;;;;;;;;;;;19.10;99.90;;;;;;5096632;27;19926;-54
2022/07/02 07:55:31;;;;;;;;;;;19.10;99.90;;;;;;5122230;27;19912;-54
2022/07/02 07:58:11;;;;;;;;;;;19.10;99.90;;;;;;5104446;27;19926;-54
2022/07/02 08:00:52;;;;;;;;;;;19.10;99.90;;;;;;5167533;22;19933;-55
2022/07/02 08:03:32;;;;;;;;;;;19.00;99.90;;;;;;5102315;27;20311;-55
2022/07/02 08:06:12;;;;;;;;;;;19.00;99.90;;;;;;5102260;27;19934;-55
2022/07/02 08:08:52;;;;;;;;;;;18.90;99.90;;;;;;5117950;27;19912;-55
2022/07/02 08:11:32;;;;;;;;;;;18.90;99.90;;;;;;5113084;27;19912;-54
2022/07/02 08:14:12;;;;;;;;;;;19.30;99.90;;;;;;5123457;27;19953;-55
2022/07/02 08:16:52;;;;;;;;;;;19.90;99.90;;;;;;5120053;27;19938;-55
2022/07/02 08:19:31;;;;;;;;;;;20.10;99.90;;;;;;5117627;27;20406;-55
2022/07/02 08:22:11;;;;;;;;;;;20.20;99.90;;;;;;5117652;27;19918;-55
2022/07/02 08:24:51;;;;;;;;;;;20.20;99.90;;;;;;5124048;27;19912;-54
2022/07/02 08:27:31;;;;;;;;;;;20.30;99.90;;;;;;5101361;27;19913;-54
2022/07/02 08:30:11;;;;;;;;;;;20.30;99.90;;;;;;5087851;27;20335;-55
2022/07/02 08:32:52;;;;;;;;;;;20.60;99.90;;;;;;5101948;27;19916;-55
2022/07/02 08:35:32;;;;;;;;;;;20.90;99.90;;;;;;5121784;27;19912;-55
2022/07/02 08:38:12;;;;;;;;;;;20.90;99.90;;;;;;5124093;27;20100;-55
2022/07/02 08:40:52;;;;;;;;;;;20.90;99.90;;;;;;5099461;27;20254;-55
2022/07/02 08:43:32;;;;;;;;;;;21.10;99.90;;;;;;5103909;27;19930;-56
2022/07/02 08:46:14;;;;;;;;;;;21.40;99.90;;;;;;5123788;27;19945;-55
2022/07/02 08:48:54;;;;;;;;;;;21.50;99.90;;;;;;5119553;27;19922;-55
2022/07/02 08:51:34;;;;;;;;;;;21.50;99.90;;;;;;5112541;27;19912;-55
2022/07/02 08:54:15;;;;;;;;;;;21.50;99.90;;;;;;5123607;27;19916;-55
2022/07/02 08:56:56;;;;;;;;;;;21.40;99.90;;;;;;5103186;27;19926;-55
2022/07/02 08:59:35;;;;;;;;;;;21.60;99.90;;;;;;5125366;27;19912;-55
2022/07/02 09:02:16;;;;;;;;;;;22.00;99.90;;;;;;5122761;27;19918;-55
2022/07/02 09:04:57;;;;;;;;;;;21.90;99.90;;;;;;5124461;27;19918;-55
2022/07/02 09:07:39;;;;;;;;;;;21.90;99.90;;;;;;5123035;27;19911;-54
2022/07/02 09:10:20;;;;;;;;;;;21.90;99.90;;;;;;5099716;27;19916;-56
2022/07/02 09:13:02;;;;;;;;;;;21.50;99.90;;;;;;5122969;27;19918;-55
2022/07/02 09:15:42;;;;;;;;;;;21.40;99.90;;;;;;5124488;27;19912;-55
2022/07/02 09:18:22;;;;;;;;;;;21.50;99.90;;;;;;5124038;27;19912;-54
2022/07/02 09:21:03;;;;;;;;;;;21.40;99.90;;;;;;5119332;27;19912;-55
2022/07/02 09:23:47;;;;;;;;;;;21.40;99.90;;;;;;5103914;27;19930;-55
2022/07/02 09:26:26;;;;;;;;;;;21.30;99.90;;;;;;5103657;27;19916;-55
2022/07/02 09:29:08;;;;;;;;;;;21.10;99.90;;;;;;5125533;27;19926;-55
2022/07/02 09:31:49;;;;;;;;;;;21.30;99.90;;;;;;5125521;27;19918;-54
2022/07/02 09:34:29;;;;;;;;;;;22.20;99.90;;;;;;5126044;27;19915;-55
2022/07/02 09:37:13;;;;;;;;;;;23.00;99.90;;;;;;5105138;27;19969;-55
2022/07/02 09:39:57;;;;;;;;;;;23.70;99.90;;;;;;5114351;27;20288;-55
2022/07/02 09:42:36;;;;;;;;;;;24.10;97.20;;;;;;5107611;27;19943;-55
2022/07/02 09:45:17;;;;;;;;;;;24.20;88.20;;;;;;5124471;27;19912;-55
2022/07/02 09:48:02;;;;;;;;;;;24.20;93.90;;;;;;5105023;27;19946;-55
2022/07/02 09:50:42;;;;;;;;;;;24.00;95.40;;;;;;5122757;27;20312;-54
2022/07/02 09:53:22;;;;;;;;;;;23.70;94.90;;;;;;5124660;27;19916;-56
2022/07/02 09:56:05;;;;;;;;;;;23.60;95.70;;;;;;5121713;27;19912;-55
2022/07/02 09:58:45;;;;;;;;;;;23.60;91.70;;;;;;5124651;27;19912;-56
2022/07/02 10:01:25;;;;;;;;;;;23.70;90.50;;;;;;5122102;27;19926;-55
2022/07/02 10:04:05;;;;;;;;;;;23.60;88.30;;;;;;5126251;27;19911;-55
2022/07/02 10:06:45;;;;;;;;;;;23.60;85.40;;;;;;5107057;27;20591;-55
2022/07/02 10:09:26;;;;;;;;;;;23.60;86.60;;;;;;5125842;27;20357;-56
2022/07/02 10:12:06;;;;;;;;;;;24.00;89.60;;;;;;5125334;27;19920;-55
2022/07/02 10:14:47;;;;;;;;;;;24.20;79.50;;;;;;5163446;27;19911;-54
2022/07/02 10:17:29;;;;;;;;;;;24.50;80.20;;;;;;5125539;27;19912;-54
2022/07/02 10:20:09;;;;;;;;;;;24.70;71.80;;;;;;5104989;27;20601;-55
2022/07/02 10:22:50;;;;;;;;;;;25.00;69.20;;;;;;5125863;27;19916;-56
2022/07/02 10:25:30;;;;;;;;;;;25.30;65.80;;;;;;5126092;27;19912;-55
2022/07/02 10:28:09;;;;;;;;;;;25.60;62.30;;;;;;5105521;27;20397;-55
2022/07/02 10:30:50;;;;;;;;;;;25.70;62.40;;;;;;5105704;27;20385;-55
2022/07/02 10:33:33;;;;;;;;;;;25.80;60.90;;;;;;5155040;27;19912;-55
2022/07/02 10:36:15;;;;;;;;;;;25.70;59.70;;;;;;5105351;27;19953;-55
2022/07/02 10:38:59;;;;;;;;;;;25.40;60.00;;;;;;5125654;27;20369;-55
2022/07/02 10:41:38;;;;;;;;;;;25.40;57.60;;;;;;5102514;27;19912;-55
2022/07/02 10:44:18;;;;;;;;;;;25.30;55.10;;;;;;5105733;27;19953;-55
2022/07/02 10:47:00;;;;;;;;;;;25.40;56.20;;;;;;5085216;28;20277;-54
2022/07/02 10:49:39;;;;;;;;;;;25.10;49.40;;;;;;5126003;27;20465;-55
2022/07/02 10:52:19;;;;;;;;;;;25.00;54.90;;;;;;5126165;27;19912;-55
2022/07/02 10:54:59;;;;;;;;;;;25.00;52.90;;;;;;5105307;27;19919;-54
2022/07/02 10:57:40;;;;;;;;;;;24.50;54.10;;;;;;5125715;27;19918;-55
2022/07/02 11:00:27;;;;;;;;;;;23.90;53.70;;;;;;5126000;27;20327;-55
2022/07/02 11:03:13;;;;;;;;;;;23.40;53.40;;;;;;5126157;27;19920;-55
2022/07/02 11:05:57;;;;;;;;;;;23.00;55.20;;;;;;5125797;27;19915;-55
2022/07/02 11:08:45;;;;;;;;;;;22.80;55.80;;;;;;5121171;27;19912;-55
2022/07/02 11:11:47;;;;;;;;;;;22.80;58.90;;;;;;5095688;27;19919;-55
2022/07/02 11:14:28;;;;;;;;;;;23.10;57.50;;;;;;5125296;27;20415;-55
2022/07/02 11:17:11;;;;;;;;;;;23.10;58.90;;;;;;5145888;27;19912;-55
2022/07/02 11:19:55;;;;;;;;;;;23.00;59.00;;;;;;5104827;27;19916;-56
2022/07/02 11:22:37;;;;;;;;;;;22.80;60.60;;;;;;5119296;27;19916;-55
2022/07/02 11:25:17;;;;;;;;;;;23.00;61.00;;;;;;5104432;27;19916;-55
2022/07/02 11:27:57;;;;;;;;;;;23.30;55.60;;;;;;5125069;27;19915;-55
2022/07/02 11:30:38;;;;;;;;;;;23.20;54.00;;;;;;5125084;27;19911;-55
2022/07/02 11:33:20;;;;;;;;;;;23.20;54.80;;;;;;5125526;27;19912;-55
2022/07/02 11:36:03;;;;;;;;;;;22.90;55.80;;;;;;5040515;27;2754625;-55
2022/07/02 11:38:49;;;;;;;;;;;23.00;55.30;;;;;;5150076;27;19922;-55
2022/07/02 11:41:35;;;;;;;;;;;23.40;54.10;;;;;;5015141;27;3278130;-55
2022/07/02 11:44:18;;;;;;;;;;;23.70;54.10;;;;;;5145935;27;19915;-55
2022/07/02 11:46:58;;;;;;;;;;;24.00;52.80;;;;;;5084932;28;19913;-55
2022/07/02 11:49:39;;;;;;;;;;;24.30;53.90;;;;;;5126496;27;19920;-56
2022/07/02 11:52:19;;;;;;;;;;;24.70;51.10;;;;;;5125474;27;19911;-54
2022/07/02 11:54:58;;;;;;;;;;;24.70;52.20;;;;;;5125853;27;19919;-55
2022/07/02 11:57:38;;;;;;;;;;;24.30;51.40;;;;;;5085016;28;19913;-55
2022/07/02 12:00:18;;;;;;;;;;;24.10;52.20;;;;;;5105590;27;20399;-54
2022/07/02 12:02:58;;;;;;;;;;;24.00;51.00;;;;;;5104202;27;19926;-54
2022/07/02 12:05:38;;;;;;;;;;;24.10;52.30;;;;;;5105390;27;19912;-55
2022/07/02 12:08:19;;;;;;;;;;;23.90;51.40;;;;;;5116610;27;20300;-54
2022/07/02 12:11:00;;;;;;;;;;;24.00;52.30;;;;;;5119532;27;19923;-55
2022/07/02 12:13:41;;;;;;;;;;;24.00;53.80;;;;;;5103673;27;19957;-55
2022/07/02 12:16:23;;;;;;;;;;;24.10;51.80;;;;;;5125862;27;19912;-54
2022/07/02 12:19:04;;;;;;;;;;;24.00;52.60;;;;;;5121806;27;19919;-54
2022/07/02 12:21:46;;;;;;;;;;;23.90;52.60;;;;;;5143536;27;20395;-54
2022/07/02 12:24:27;;;;;;;;;;;24.00;51.00;;;;;;5119520;27;19938;-54
2022/07/02 12:27:08;;;;;;;;;;;24.00;50.70;;;;;;5108409;27;19922;-54
2022/07/02 12:29:56;;;;;;;;;;;24.20;50.40;;;;;;5125037;27;20016;-54
2022/07/02 12:32:39;;;;;;;;;;;24.40;52.40;;;;;;5109735;27;19916;-54
2022/07/02 12:35:18;;;;;;;;;;;24.50;50.40;;;;;;5105126;27;19912;-54
2022/07/02 12:37:59;;;;;;;;;;;24.40;48.20;;;;;;5098085;27;19912;-54
2022/07/02 12:40:40;;;;;;;;;;;24.30;49.20;;;;;;5101824;27;19926;-55
2022/07/02 12:43:22;;;;;;;;;;;24.20;50.10;;;;;;5125161;27;19912;-54
2022/07/02 12:46:06;;;;;;;;;;;24.30;48.70;;;;;;5125743;27;19917;-54
2022/07/02 12:48:46;;;;;;;;;;;24.40;48.10;;;;;;5125995;27;19911;-55
2022/07/02 12:51:25;;;;;;;;;;;24.30;45.90;;;;;;5095118;27;20079;-54
2022/07/02 12:54:05;;;;;;;;;;;24.40;46.80;;;;;;5100458;27;19916;-54
2022/07/02 12:56:45;;;;;;;;;;;24.60;48.50;;;;;;5098227;27;20422;-54
2022/07/02 12:59:25;;;;;;;;;;;24.70;48.20;;;;;;5119636;27;20378;-54
2022/07/02 13:02:05;;;;;;;;;;;24.80;45.60;;;;;;5110811;27;19912;-55
2022/07/02 13:04:45;;;;;;;;;;;24.80;45.90;;;;;;5124172;27;19912;-55
2022/07/02 13:07:24;;;;;;;;;;;24.80;47.50;;;;;;5105805;27;19958;-56
2022/07/02 13:10:04;;;;;;;;;;;24.90;46.20;;;;;;5105163;27;19969;-55
2022/07/02 13:12:44;;;;;;;;;;;25.10;45.80;;;;;;5105883;27;19926;-54
2022/07/02 13:15:24;;;;;;;;;;;25.20;44.30;;;;;;5126453;27;19912;-55
2022/07/02 13:18:04;;;;;;;;;;;25.40;46.00;;;;;;5124188;27;19912;-54
2022/07/02 13:20:45;;;;;;;;;;;25.50;46.30;;;;;;5064726;28;20371;-55
2022/07/02 13:23:25;;;;;;;;;;;25.60;46.40;;;;;;5125391;27;20373;-54
2022/07/02 13:26:05;;;;;;;;;;;25.60;46.80;;;;;;5126035;27;20281;-54
2022/07/02 13:28:44;;;;;;;;;;;25.40;46.30;;;;;;5127546;27;19919;-55
2022/07/02 13:31:25;;;;;;;;;;;25.50;47.30;;;;;;5106047;27;19946;-54
2022/07/02 13:34:06;;;;;;;;;;;25.50;45.90;;;;;;5126751;27;20734;-54
2022/07/02 13:36:46;;;;;;;;;;;25.50;45.50;;;;;;5126441;27;19912;-54
2022/07/02 13:39:25;;;;;;;;;;;25.40;45.50;;;;;;5097984;27;19912;-54
2022/07/02 13:42:06;;;;;;;;;;;25.30;44.90;;;;;;5111357;27;19918;-54
2022/07/02 13:44:45;;;;;;;;;;;25.40;46.40;;;;;;5152519;27;19915;-55
2022/07/02 13:47:25;;;;;;;;;;;25.40;47.10;;;;;;5161981;27;20380;-55
2022/07/02 13:50:05;;;;;;;;;;;25.50;46.20;;;;;;5106092;27;19912;-54
2022/07/02 13:52:44;;;;;;;;;;;25.40;45.70;;;;;;5085797;28;20121;-54
2022/07/02 13:55:24;;;;;;;;;;;25.40;43.90;;;;;;5126859;27;19912;-54
2022/07/02 13:58:04;;;;;;;;;;;25.40;45.60;;;;;;5126734;27;19915;-54
2022/07/02 14:01:04;;;;;;;;;;;25.40;45.00;;;;;;5107400;27;19915;-54
2022/07/02 14:03:45;;;;;;;;;;;25.60;45.80;;;;;;5154884;27;19912;-54
2022/07/02 14:06:25;;;;;;;;;;;25.80;43.90;;;;;;5124390;27;19912;-55
2022/07/02 14:09:05;;;;;;;;;;;25.60;44.10;;;;;;5118967;27;19916;-55
2022/07/02 14:11:44;;;;;;;;;;;25.70;44.80;;;;;;5115270;27;20199;-54
2022/07/02 14:14:24;;;;;;;;;;;25.80;46.10;;;;;;5124319;27;19916;-55
2022/07/02 14:17:04;;;;;;;;;;;25.60;45.30;;;;;;5082619;28;20369;-54
2022/07/02 14:19:45;;;;;;;;;;;25.70;46.50;;;;;;5098187;27;19916;-53
2022/07/02 14:22:29;;;;;;;;;;;25.80;45.50;;;;;;5109369;27;19912;-55
2022/07/02 14:25:10;;;;;;;;;;;25.80;46.60;;;;;;5104400;27;19916;-53
2022/07/02 14:27:49;;;;;;;;;;;26.00;47.20;;;;;;5117285;27;19912;-54
2022/07/02 14:30:29;;;;;;;;;;;26.00;47.40;;;;;;5100847;27;19916;-54
2022/07/02 14:33:09;;;;;;;;;;;26.10;47.10;;;;;;5144122;27;19912;-55
2022/07/02 14:35:50;;;;;;;;;;;26.20;45.70;;;;;;5103434;27;19912;-54
2022/07/02 14:38:30;;;;;;;;;;;26.30;46.00;;;;;;5103829;27;19934;-55
2022/07/02 14:44:08;;;;;;;;;;;26.20;45.70;;;;;;5120650;27;19920;-55
2022/07/02 14:46:47;;;;;;;;;;;26.30;45.70;;;;;;5122208;27;19920;-54
2022/07/02 14:49:27;;;;;;;;;;;26.40;44.80;;;;;;5102712;27;19916;-54
2022/07/02 14:52:07;;;;;;;;;;;26.40;44.80;;;;;;5090759;27;19931;-55
2022/07/02 14:54:47;;;;;;;;;;;26.50;45.90;;;;;;5107890;27;19917;-54
2022/07/02 14:57:27;;;;;;;;;;;26.60;45.60;;;;;;5123287;27;19919;-52
2022/07/02 15:00:08;;;;;;;;;;;26.70;43.60;;;;;;5108067;27;19927;-54
2022/07/02 15:02:48;;;;;;;;;;;26.70;43.50;;;;;;5105607;27;19920;-54
2022/07/02 15:05:28;;;;;;;;;;;26.50;43.70;;;;;;5104184;27;19912;-54
2022/07/02 15:08:08;;;;;;;;;;;26.30;43.70;;;;;;5119344;27;19916;-55
2022/07/02 15:10:48;;;;;;;;;;;26.40;43.70;;;;;;5102303;27;19920;-55
2022/07/02 15:15:59;;;;;;;;;;;26.60;44.20;;;;;;5124100;27;20303;-53
2022/07/02 15:16:28;;;;;;;;;;;26.90;44.00;;;;;;5123487;27;20376;-54
2022/07/02 15:19:08;;;;;;;;;;;27.10;42.90;;;;;;5145543;27;19922;-55
2022/07/02 15:21:48;;;;;;;;;;;27.00;44.20;;;;;;5094221;27;19936;-54
2022/07/02 15:24:30;;;;;;;;;;;27.00;43.50;;;;;;5122501;27;20397;-54
2022/07/02 15:27:11;;;;;;;;;;;26.90;43.00;;;;;;5123555;27;19916;-54
2022/07/02 15:29:52;;;;;;;;;;;28.20;43.50;;;;;;5103482;27;20209;-54
2022/07/02 15:32:32;;;;;;;;;;;29.80;39.80;;;;;;5103886;27;19916;-54
2022/07/02 15:35:13;;;;;;;;;;;30.80;37.90;;;;;;5123534;27;19915;-53
2022/07/02 15:37:54;;;;;;;;;;;31.70;36.20;;;;;;5123059;27;20397;-54
2022/07/02 15:40:37;;;;;;;;;;;32.60;35.60;;;;;;5124883;27;19912;-54
2022/07/02 15:43:17;;;;;;;;;;;33.20;33.50;;;;;;5124761;27;19918;-54
2022/07/02 15:45:57;;;;;;;;;;;32.60;32.90;;;;;;5123627;27;19911;-53
2022/07/02 15:48:38;;;;;;;;;;;32.20;33.30;;;;;;5124618;27;19911;-54